createdAt,value
2019-01-04T00:05:07.798Z,91.96
2019-01-04T00:10:03.733Z,91.46
2019-01-04T00:14:59.568Z,90.96
2019-01-04T00:19:56.223Z,90.90
2019-01-04T00:24:52.085Z,90.55
2019-01-04T00:29:48.112Z,90.21
2019-01-04T00:34:44.762Z,90.80
2019-01-04T00:39:41.085Z,92.02
2019-01-04T00:44:37.063Z,92.46
2019-01-04T00:49:33.256Z,93.35
2019-01-04T00:54:29.543Z,93.61
2019-01-04T01:00:42.125Z,92.13
2019-01-04T01:07:01.312Z,93.37
2019-01-04T01:12:43.480Z,93.00
2019-01-04T01:18:41.474Z,93.43
2019-01-04T01:24:43.511Z,92.82
2019-01-04T01:30:38.436Z,91.66
2019-01-04T01:36:35.170Z,91.92
2019-01-04T01:42:51.103Z,93.27
2019-01-04T01:48:24.566Z,93.15
2019-01-04T01:53:20.225Z,93.59
2019-01-04T01:58:19.070Z,94.19
2019-01-04T02:03:15.115Z,93.62
2019-01-04T02:08:10.885Z,92.96
2019-01-04T02:13:06.972Z,93.65
2019-01-04T02:18:02.931Z,92.98
2019-01-04T02:41:32.766Z,94.64
2019-01-04T02:57:53.008Z,96.84
2019-01-04T03:03:31.608Z,96.64
2019-01-04T03:14:35.481Z,97.74
2019-01-04T03:24:51.215Z,97.02
2019-01-04T03:29:47.152Z,97.67
2019-01-04T03:34:43.088Z,96.21
2019-01-04T03:39:39.067Z,96.87
2019-01-04T03:44:34.900Z,97.98
2019-01-04T03:49:30.658Z,97.69
2019-01-04T03:54:26.472Z,97.04
2019-01-04T03:59:22.293Z,95.67
2019-01-04T04:04:18.127Z,97.07
2019-01-04T04:09:14.053Z,97.44
2019-01-04T04:14:09.810Z,97.69
2019-01-04T04:19:05.721Z,95.92
2019-01-04T04:24:01.586Z,96.98
2019-01-04T04:28:57.394Z,96.39
2019-01-04T04:33:53.178Z,97.58
2019-01-04T04:38:49.387Z,96.58
2019-01-04T04:43:45.366Z,95.99
2019-01-04T04:48:42.188Z,96.16
2019-01-04T04:53:38.022Z,96.77
2019-01-04T04:58:34.031Z,97.16
2019-01-04T05:03:30.379Z,98.28
2019-01-04T05:08:26.402Z,97.64
2019-01-04T05:13:22.347Z,97.86
2019-01-04T05:18:18.235Z,96.94
2019-01-04T05:23:14.213Z,98.33
2019-01-04T05:28:10.088Z,99.36
2019-01-04T05:33:13.441Z,99.94
2019-01-04T05:38:09.380Z,99.38
2019-01-04T05:43:05.591Z,98.46
2019-01-04T05:48:02.076Z,97.76
2019-01-04T05:52:57.854Z,99.21
2019-01-04T05:58:00.704Z,97.76
2019-01-04T06:02:56.631Z,98.44
2019-01-04T06:07:52.661Z,99.36
2019-01-04T06:12:48.478Z,97.95
2019-01-04T06:17:44.903Z,99.42
2019-01-04T06:22:40.865Z,98.80
2019-01-04T06:27:36.733Z,99.10
2019-01-04T06:32:32.665Z,99.75
2019-01-04T06:37:28.522Z,99.66
2019-01-04T06:43:30.691Z,97.79
2019-01-04T06:55:30.917Z,98.19
2019-01-04T07:18:37.530Z,98.20
2019-01-04T07:23:36.331Z,98.43
2019-01-04T07:34:54.521Z,98.35
2019-01-04T07:39:50.423Z,97.60
2019-01-04T07:44:46.403Z,97.65
2019-01-04T07:49:43.152Z,97.90
2019-01-04T07:54:39.011Z,98.12
2019-01-04T07:59:35.420Z,97.35
2019-01-04T08:04:31.623Z,99.17
2019-01-04T08:09:27.557Z,98.63
2019-01-04T08:14:24.565Z,97.49
2019-01-04T08:19:20.746Z,97.59
2019-01-04T08:24:16.978Z,96.93
2019-01-04T08:29:13.106Z,96.76
2019-01-04T08:34:09.142Z,96.18
2019-01-04T08:39:07.397Z,96.34
2019-01-04T08:44:05.442Z,96.01
2019-01-04T08:49:02.005Z,95.52
2019-01-04T08:54:09.919Z,94.90
2019-01-04T08:59:06.146Z,93.43
2019-01-04T09:04:02.251Z,93.74
2019-01-04T09:08:58.290Z,93.67
2019-01-04T09:13:55.232Z,94.46
2019-01-04T09:18:51.264Z,94.40
2019-01-04T09:23:47.669Z,94.19
2019-01-04T09:28:43.683Z,91.56
2019-01-04T09:33:39.766Z,91.66
2019-01-04T09:38:35.912Z,91.64
2019-01-04T09:43:34.290Z,89.21
2019-01-04T09:48:32.858Z,89.01
2019-01-04T09:53:28.694Z,87.85
2019-01-04T09:58:24.812Z,87.56
2019-01-04T10:03:20.774Z,88.67
2019-01-04T10:08:17.202Z,83.99
2019-01-04T10:13:13.265Z,85.46
2019-01-04T10:18:09.381Z,86.20
2019-01-04T10:23:05.417Z,86.36
2019-01-04T10:28:01.355Z,86.73
2019-01-04T10:32:57.299Z,86.95
2019-01-04T10:37:53.260Z,87.59
2019-01-04T10:42:49.270Z,87.31
2019-01-04T10:47:45.295Z,86.05
2019-01-04T10:52:41.324Z,85.92
2019-01-04T10:57:37.438Z,87.22
2019-01-04T11:02:33.417Z,87.81
2019-01-04T11:07:29.418Z,87.47
2019-01-04T11:12:25.569Z,86.24
2019-01-04T11:17:21.596Z,87.18
2019-01-04T11:22:59.277Z,87.35
2019-01-04T11:28:40.031Z,86.84
2019-01-04T11:34:05.037Z,81.93
2019-01-04T11:39:43.879Z,83.07
2019-01-04T11:45:45.665Z,81.88
2019-01-04T11:51:10.535Z,78.61
2019-01-04T11:56:07.473Z,79.38
2019-01-04T12:06:07.853Z,79.58
2019-01-04T12:11:03.845Z,79.36
2019-01-04T12:16:03.373Z,75.72
2019-01-04T12:21:06.161Z,73.75
2019-01-04T12:26:05.609Z,74.72
2019-01-04T12:31:01.617Z,76.46
2019-01-04T12:45:39.337Z,76.19
2019-01-04T13:04:34.294Z,78.00
2019-01-04T13:43:54.398Z,74.01
2019-01-04T13:50:02.171Z,70.71
2019-01-04T14:15:50.843Z,76.08
2019-01-04T14:25:46.352Z,77.49
2019-01-04T15:36:44.294Z,86.76
2019-01-04T15:41:40.200Z,87.95
2019-01-04T15:46:36.139Z,88.09
2019-01-04T15:51:31.962Z,87.59
2019-01-04T15:56:28.317Z,89.17
2019-01-04T16:01:24.164Z,89.82
2019-01-04T16:06:20.451Z,90.07
2019-01-04T16:11:16.520Z,88.84
2019-01-04T16:16:12.494Z,87.71
2019-01-04T16:21:08.519Z,88.65
2019-01-04T16:26:05.808Z,89.04
2019-01-04T16:31:02.050Z,90.10
2019-01-04T16:36:22.868Z,89.32
2019-01-04T16:42:01.826Z,90.72
2019-01-04T16:47:26.038Z,89.32
2019-01-04T16:53:14.167Z,89.90
2019-01-04T16:58:54.072Z,90.17
2019-01-04T17:04:02.849Z,89.94
2019-01-04T17:09:09.796Z,88.37
2019-01-04T17:14:54.570Z,87.48
2019-01-04T17:20:30.175Z,88.46
2019-01-04T17:25:55.243Z,88.30
2019-01-04T17:31:19.256Z,88.17
2019-01-04T17:36:47.262Z,85.25
2019-01-04T17:42:07.573Z,86.48
2019-01-04T17:47:41.851Z,85.87
2019-01-04T17:53:00.065Z,86.57
2019-01-04T17:58:03.440Z,87.10
2019-01-04T18:09:14.722Z,89.50
2019-01-04T18:14:46.917Z,90.35
2019-01-04T18:19:57.810Z,90.86
2019-01-04T18:26:49.639Z,91.60
2019-01-04T18:32:18.627Z,91.64
2019-01-04T18:38:18.376Z,90.70
2019-01-04T18:50:45.642Z,90.14
2019-01-04T19:01:57.378Z,89.42
2019-01-04T19:06:49.081Z,89.17
2019-01-04T19:11:46.020Z,90.33
2019-01-04T19:16:43.005Z,90.08
2019-01-04T19:21:39.246Z,88.94
2019-01-04T19:26:41.210Z,88.86
2019-01-04T19:31:37.572Z,87.79
2019-01-04T19:36:33.923Z,87.03
2019-01-04T19:41:30.334Z,87.60
2019-01-04T19:46:26.311Z,87.88
2019-01-04T19:51:22.377Z,85.28
2019-01-04T19:56:18.491Z,84.68
2019-01-04T20:01:15.986Z,83.17
2019-01-04T20:07:23.093Z,81.28
2019-01-04T20:19:10.573Z,80.42
2019-01-04T20:24:28.820Z,82.80
2019-01-04T20:29:43.029Z,81.83
2019-01-04T20:35:04.597Z,81.82
2019-01-04T20:40:16.524Z,81.82
2019-01-04T20:45:40.607Z,81.12
2019-01-04T20:51:07.865Z,80.92
2019-01-04T20:56:21.716Z,81.10
2019-01-04T21:01:49.042Z,82.39
2019-01-04T21:06:57.558Z,81.60
2019-01-04T21:12:21.157Z,81.26
2019-01-04T21:17:51.692Z,81.79
2019-01-04T21:23:09.984Z,82.42
2019-01-04T21:28:23.609Z,82.29
2019-01-04T21:33:47.946Z,81.44
2019-01-04T21:39:17.868Z,83.08
2019-01-04T21:44:31.180Z,83.21
2019-01-04T21:49:46.271Z,83.13
2019-01-04T21:55:00.210Z,82.48
2019-01-04T22:00:18.526Z,82.79
2019-01-04T22:05:51.167Z,83.71
2019-01-04T22:11:04.925Z,83.03
2019-01-04T22:16:22.749Z,83.70
2019-01-04T22:21:50.370Z,84.42
2019-01-04T22:27:13.862Z,84.49
2019-01-04T22:32:22.347Z,84.77
2019-01-04T22:37:52.507Z,86.14
2019-01-04T22:43:20.078Z,86.64
2019-01-04T22:48:53.459Z,84.91
2019-01-04T22:54:23.601Z,85.49
2019-01-04T22:59:50.411Z,85.21
2019-01-04T23:05:11.052Z,84.42
2019-01-04T23:10:25.986Z,84.38
2019-01-04T23:15:56.032Z,84.93
2019-01-04T23:21:09.425Z,84.87
2019-01-04T23:26:23.078Z,84.75
2019-01-04T23:31:41.328Z,85.95
2019-01-04T23:36:55.174Z,85.51
2019-01-04T23:42:08.893Z,86.23
2019-01-04T23:47:27.545Z,86.02
2019-01-04T23:52:45.408Z,85.82
2019-01-04T23:57:59.003Z,86.55
